sensor_id;sensor_type;location;lat;lon;timestamp;P1;durP1;ratioP1;P2;durP2;ratioP2
47958;SDS011;33718;50.910;-1.514;2022-09-21T00:00:22;5.03;;;1.73;;
47958;SDS011;33718;50.910;-1.514;2022-09-21T00:02:24;1.40;;;1.30;;
47958;SDS011;33718;50.910;-1.514;2022-09-21T00:04:26;1.73;;;1.58;;
47958;SDS011;33718;50.910;-1.514;2022-09-21T00:06:37;3.92;;;1.13;;
47958;SDS011;33718;50.910;-1.514;2022-09-21T00:08:44;2.10;;;1.55;;
47958;SDS011;33718;50.910;-1.514;2022-09-21T00:10:56;2.80;;;1.25;;
47958;SDS011;33718;50.910;-1.514;2022-09-21T00:13:09;6.63;;;1.35;;
47958;SDS011;33718;50.910;-1.514;2022-09-21T00:15:20;2.97;;;1.13;;
47958;SDS011;33718;50.910;-1.514;2022-09-21T00:17:33;2.35;;;1.30;;
47958;SDS011;33718;50.910;-1.514;2022-09-21T00:19:46;2.95;;;1.67;;
47958;SDS011;33718;50.910;-1.514;2022-09-21T00:21:59;2.03;;;1.60;;
47958;SDS011;33718;50.910;-1.514;2022-09-21T00:24:11;2.65;;;1.30;;
47958;SDS011;33718;50.910;-1.514;2022-09-21T00:26:25;2.55;;;1.75;;
47958;SDS011;33718;50.910;-1.514;2022-09-21T00:28:31;3.88;;;1.35;;
47958;SDS011;33718;50.910;-1.514;2022-09-21T00:30:40;1.60;;;1.38;;
47958;SDS011;33718;50.910;-1.514;2022-09-21T00:32:51;2.85;;;1.55;;
47958;SDS011;33718;50.910;-1.514;2022-09-21T00:35:01;5.57;;;1.83;;
47958;SDS011;33718;50.910;-1.514;2022-09-21T00:37:11;4.53;;;1.05;;
47958;SDS011;33718;50.910;-1.514;2022-09-21T00:39:13;1.65;;;1.30;;
47958;SDS011;33718;50.910;-1.514;2022-09-21T00:41:14;2.22;;;1.13;;
47958;SDS011;33718;50.910;-1.514;2022-09-21T00:43:16;2.25;;;1.48;;
47958;SDS011;33718;50.910;-1.514;2022-09-21T00:45:18;4.07;;;1.63;;
47958;SDS011;33718;50.910;-1.514;2022-09-21T00:47:36;1.58;;;1.38;;
47958;SDS011;33718;50.910;-1.514;2022-09-21T00:49:39;2.22;;;1.65;;
47958;SDS011;33718;50.910;-1.514;2022-09-21T00:51:42;1.75;;;1.25;;
47958;SDS011;33718;50.910;-1.514;2022-09-21T00:53:43;2.20;;;1.30;;
47958;SDS011;33718;50.910;-1.514;2022-09-21T00:55:47;1.60;;;1.45;;
47958;SDS011;33718;50.910;-1.514;2022-09-21T00:57:52;3.83;;;1.65;;
47958;SDS011;33718;50.910;-1.514;2022-09-21T00:59:56;3.72;;;1.98;;
47958;SDS011;33718;50.910;-1.514;2022-09-21T01:01:59;1.85;;;1.65;;
47958;SDS011;33718;50.910;-1.514;2022-09-21T01:04:01;5.55;;;1.48;;
47958;SDS011;33718;50.910;-1.514;2022-09-21T01:06:02;1.65;;;1.10;;
47958;SDS011;33718;50.910;-1.514;2022-09-21T01:08:05;3.65;;;1.35;;
47958;SDS011;33718;50.910;-1.514;2022-09-21T01:10:11;2.25;;;1.58;;
47958;SDS011;33718;50.910;-1.514;2022-09-21T01:12:27;7.45;;;1.40;;
47958;SDS011;33718;50.910;-1.514;2022-09-21T01:23:04;6.85;;;1.58;;
47958;SDS011;33718;50.910;-1.514;2022-09-21T01:27:25;4.88;;;1.63;;
47958;SDS011;33718;50.910;-1.514;2022-09-21T01:29:31;2.53;;;1.20;;
47958;SDS011;33718;50.910;-1.514;2022-09-21T01:31:37;1.80;;;1.60;;
47958;SDS011;33718;50.910;-1.514;2022-09-21T01:33:44;3.22;;;1.25;;
47958;SDS011;33718;50.910;-1.514;2022-09-21T01:35:47;2.90;;;1.30;;
47958;SDS011;33718;50.910;-1.514;2022-09-21T01:37:51;1.55;;;1.45;;
47958;SDS011;33718;50.910;-1.514;2022-09-21T01:39:54;1.83;;;1.40;;
47958;SDS011;33718;50.910;-1.514;2022-09-21T01:41:56;4.22;;;1.88;;
47958;SDS011;33718;50.910;-1.514;2022-09-21T01:44:01;2.22;;;1.58;;
47958;SDS011;33718;50.910;-1.514;2022-09-21T01:46:10;1.60;;;1.50;;
47958;SDS011;33718;50.910;-1.514;2022-09-21T01:48:13;5.03;;;1.73;;
47958;SDS011;33718;50.910;-1.514;2022-09-21T01:50:15;1.00;;;0.88;;
47958;SDS011;33718;50.910;-1.514;2022-09-21T01:54:24;3.50;;;1.23;;
47958;SDS011;33718;50.910;-1.514;2022-09-21T01:56:31;1.52;;;1.10;;
47958;SDS011;33718;50.910;-1.514;2022-09-21T01:58:38;1.30;;;1.20;;
47958;SDS011;33718;50.910;-1.514;2022-09-21T02:00:43;1.73;;;1.35;;
47958;SDS011;33718;50.910;-1.514;2022-09-21T02:05:00;1.30;;;1.02;;
47958;SDS011;33718;50.910;-1.514;2022-09-21T02:07:03;1.10;;;1.00;;
47958;SDS011;33718;50.910;-1.514;2022-09-21T02:09:05;2.10;;;1.30;;
47958;SDS011;33718;50.910;-1.514;2022-09-21T02:11:07;2.58;;;1.40;;
47958;SDS011;33718;50.910;-1.514;2022-09-21T02:13:09;1.88;;;1.15;;
47958;SDS011;33718;50.910;-1.514;2022-09-21T02:15:14;2.83;;;2.45;;
47958;SDS011;33718;50.910;-1.514;2022-09-21T02:23:48;1.05;;;0.98;;
47958;SDS011;33718;50.910;-1.514;2022-09-21T02:25:56;1.85;;;1.10;;
47958;SDS011;33718;50.910;-1.514;2022-09-21T02:29:04;2.40;;;1.02;;
47958;SDS011;33718;50.910;-1.514;2022-09-21T02:30:30;1.70;;;1.15;;
47958;SDS011;33718;50.910;-1.514;2022-09-21T02:32:36;5.53;;;1.40;;
47958;SDS011;33718;50.910;-1.514;2022-09-21T02:36:49;1.85;;;1.05;;
47958;SDS011;33718;50.910;-1.514;2022-09-21T02:38:52;2.25;;;1.38;;
47958;SDS011;33718;50.910;-1.514;2022-09-21T02:41:05;2.97;;;1.02;;
47958;SDS011;33718;50.910;-1.514;2022-09-21T02:43:09;1.35;;;1.08;;
47958;SDS011;33718;50.910;-1.514;2022-09-21T02:45:21;1.83;;;1.33;;
47958;SDS011;33718;50.910;-1.514;2022-09-21T02:47:26;1.38;;;1.10;;
47958;SDS011;33718;50.910;-1.514;2022-09-21T02:49:33;3.33;;;1.20;;
47958;SDS011;33718;50.910;-1.514;2022-09-21T02:51:38;2.65;;;1.20;;
47958;SDS011;33718;50.910;-1.514;2022-09-21T02:53:42;1.40;;;1.30;;
47958;SDS011;33718;50.910;-1.514;2022-09-21T02:55:44;8.48;;;1.80;;
47958;SDS011;33718;50.910;-1.514;2022-09-21T02:57:47;1.83;;;1.35;;
47958;SDS011;33718;50.910;-1.514;2022-09-21T02:59:49;2.63;;;1.15;;
47958;SDS011;33718;50.910;-1.514;2022-09-21T03:01:51;2.03;;;1.02;;
47958;SDS011;33718;50.910;-1.514;2022-09-21T03:03:53;2.60;;;0.63;;
47958;SDS011;33718;50.910;-1.514;2022-09-21T03:05:55;1.58;;;1.00;;
47958;SDS011;33718;50.910;-1.514;2022-09-21T03:07:56;1.75;;;1.02;;
47958;SDS011;33718;50.910;-1.514;2022-09-21T03:09:59;1.25;;;0.88;;
47958;SDS011;33718;50.910;-1.514;2022-09-21T03:12:04;1.15;;;0.90;;
47958;SDS011;33718;50.910;-1.514;2022-09-21T03:14:13;2.33;;;0.90;;
47958;SDS011;33718;50.910;-1.514;2022-09-21T03:16:28;0.87;;;0.87;;
47958;SDS011;33718;50.910;-1.514;2022-09-21T03:18:42;2.35;;;1.00;;
47958;SDS011;33718;50.910;-1.514;2022-09-21T03:20:51;0.60;;;0.60;;
47958;SDS011;33718;50.910;-1.514;2022-09-21T03:22:57;1.50;;;0.88;;
47958;SDS011;33718;50.910;-1.514;2022-09-21T03:25:06;1.60;;;1.02;;
47958;SDS011;33718;50.910;-1.514;2022-09-21T03:27:18;1.90;;;1.00;;
47958;SDS011;33718;50.910;-1.514;2022-09-21T03:29:26;1.65;;;1.02;;
47958;SDS011;33718;50.910;-1.514;2022-09-21T03:31:37;2.08;;;1.88;;
47958;SDS011;33718;50.910;-1.514;2022-09-21T03:33:48;1.00;;;0.90;;
47958;SDS011;33718;50.910;-1.514;2022-09-21T03:35:59;1.70;;;0.85;;
47958;SDS011;33718;50.910;-1.514;2022-09-21T03:38:08;3.28;;;0.80;;
47958;SDS011;33718;50.910;-1.514;2022-09-21T03:40:12;3.30;;;0.80;;
47958;SDS011;33718;50.910;-1.514;2022-09-21T03:42:22;0.80;;;0.50;;
47958;SDS011;33718;50.910;-1.514;2022-09-21T03:44:24;2.80;;;0.95;;
47958;SDS011;33718;50.910;-1.514;2022-09-21T03:46:25;1.10;;;0.85;;
47958;SDS011;33718;50.910;-1.514;2022-09-21T03:48:28;1.95;;;0.55;;
47958;SDS011;33718;50.910;-1.514;2022-09-21T03:50:29;2.75;;;1.20;;
47958;SDS011;33718;50.910;-1.514;2022-09-21T03:52:31;0.82;;;0.60;;
47958;SDS011;33718;50.910;-1.514;2022-09-21T03:54:33;0.90;;;0.70;;
47958;SDS011;33718;50.910;-1.514;2022-09-21T03:56:34;0.60;;;0.60;;
47958;SDS011;33718;50.910;-1.514;2022-09-21T03:58:36;1.00;;;0.90;;
47958;SDS011;33718;50.910;-1.514;2022-09-21T04:00:37;2.25;;;0.80;;
47958;SDS011;33718;50.910;-1.514;2022-09-21T04:02:39;0.88;;;0.82;;
47958;SDS011;33718;50.910;-1.514;2022-09-21T04:04:41;3.30;;;0.93;;
47958;SDS011;33718;50.910;-1.514;2022-09-21T04:06:43;1.35;;;0.90;;
47958;SDS011;33718;50.910;-1.514;2022-09-21T04:08:46;1.10;;;1.00;;
47958;SDS011;33718;50.910;-1.514;2022-09-21T04:10:48;1.08;;;0.98;;
47958;SDS011;33718;50.910;-1.514;2022-09-21T04:12:49;3.42;;;0.88;;
47958;SDS011;33718;50.910;-1.514;2022-09-21T04:14:50;1.70;;;1.10;;
47958;SDS011;33718;50.910;-1.514;2022-09-21T04:16:52;1.70;;;1.00;;
47958;SDS011;33718;50.910;-1.514;2022-09-21T04:18:54;3.10;;;0.68;;
47958;SDS011;33718;50.910;-1.514;2022-09-21T04:20:55;2.35;;;0.75;;
47958;SDS011;33718;50.910;-1.514;2022-09-21T04:22:57;0.85;;;0.85;;
47958;SDS011;33718;50.910;-1.514;2022-09-21T04:24:59;3.53;;;1.08;;
47958;SDS011;33718;50.910;-1.514;2022-09-21T04:27:01;2.92;;;0.68;;
47958;SDS011;33718;50.910;-1.514;2022-09-21T04:29:03;1.30;;;0.82;;
47958;SDS011;33718;50.910;-1.514;2022-09-21T04:31:05;1.00;;;0.63;;
47958;SDS011;33718;50.910;-1.514;2022-09-21T04:33:07;3.40;;;1.00;;
47958;SDS011;33718;50.910;-1.514;2022-09-21T04:35:08;1.35;;;0.98;;
47958;SDS011;33718;50.910;-1.514;2022-09-21T04:37:10;1.00;;;0.75;;
47958;SDS011;33718;50.910;-1.514;2022-09-21T04:39:12;4.68;;;1.10;;
47958;SDS011;33718;50.910;-1.514;2022-09-21T04:41:13;3.08;;;0.80;;
47958;SDS011;33718;50.910;-1.514;2022-09-21T04:43:15;0.82;;;0.70;;
47958;SDS011;33718;50.910;-1.514;2022-09-21T04:45:23;1.25;;;0.82;;
47958;SDS011;33718;50.910;-1.514;2022-09-21T04:47:24;3.17;;;1.25;;
47958;SDS011;33718;50.910;-1.514;2022-09-21T04:49:26;1.27;;;0.88;;
47958;SDS011;33718;50.910;-1.514;2022-09-21T04:51:27;2.47;;;1.20;;
47958;SDS011;33718;50.910;-1.514;2022-09-21T04:53:29;3.22;;;1.00;;
47958;SDS011;33718;50.910;-1.514;2022-09-21T04:55:30;4.38;;;1.10;;
47958;SDS011;33718;50.910;-1.514;2022-09-21T04:57:32;1.27;;;1.17;;
47958;SDS011;33718;50.910;-1.514;2022-09-21T04:59:33;0.80;;;0.80;;
47958;SDS011;33718;50.910;-1.514;2022-09-21T05:01:35;0.80;;;0.80;;
47958;SDS011;33718;50.910;-1.514;2022-09-21T05:03:37;3.47;;;1.20;;
47958;SDS011;33718;50.910;-1.514;2022-09-21T05:05:39;3.58;;;0.88;;
47958;SDS011;33718;50.910;-1.514;2022-09-21T05:07:46;3.80;;;1.23;;
47958;SDS011;33718;50.910;-1.514;2022-09-21T05:09:47;4.97;;;1.27;;
47958;SDS011;33718;50.910;-1.514;2022-09-21T05:12:03;1.23;;;1.13;;
47958;SDS011;33718;50.910;-1.514;2022-09-21T05:14:05;1.08;;;0.80;;
47958;SDS011;33718;50.910;-1.514;2022-09-21T05:16:07;1.52;;;0.88;;
47958;SDS011;33718;50.910;-1.514;2022-09-21T05:18:09;2.67;;;1.20;;
47958;SDS011;33718;50.910;-1.514;2022-09-21T05:20:11;1.90;;;1.00;;
47958;SDS011;33718;50.910;-1.514;2022-09-21T05:22:12;1.10;;;1.00;;
47958;SDS011;33718;50.910;-1.514;2022-09-21T05:24:14;2.50;;;1.02;;
47958;SDS011;33718;50.910;-1.514;2022-09-21T05:26:15;1.42;;;1.25;;
47958;SDS011;33718;50.910;-1.514;2022-09-21T05:28:18;1.63;;;0.80;;
47958;SDS011;33718;50.910;-1.514;2022-09-21T05:30:19;1.40;;;1.27;;
47958;SDS011;33718;50.910;-1.514;2022-09-21T05:38:57;0.93;;;0.88;;
47958;SDS011;33718;50.910;-1.514;2022-09-21T05:40:59;1.48;;;1.00;;
47958;SDS011;33718;50.910;-1.514;2022-09-21T05:43:00;5.00;;;1.58;;
47958;SDS011;33718;50.910;-1.514;2022-09-21T05:45:02;1.00;;;0.90;;
47958;SDS011;33718;50.910;-1.514;2022-09-21T05:47:25;1.20;;;0.95;;
47958;SDS011;33718;50.910;-1.514;2022-09-21T05:57:49;1.38;;;0.90;;
47958;SDS011;33718;50.910;-1.514;2022-09-21T06:02:25;0.75;;;0.70;;
47958;SDS011;33718;50.910;-1.514;2022-09-21T06:04:31;1.02;;;0.73;;
47958;SDS011;33718;50.910;-1.514;2022-09-21T06:06:32;4.00;;;1.17;;
47958;SDS011;33718;50.910;-1.514;2022-09-21T06:08:34;1.85;;;1.20;;
47958;SDS011;33718;50.910;-1.514;2022-09-21T06:10:36;1.52;;;0.90;;
47958;SDS011;33718;50.910;-1.514;2022-09-21T06:12:37;0.45;;;0.45;;
47958;SDS011;33718;50.910;-1.514;2022-09-21T06:14:39;1.80;;;0.82;;
47958;SDS011;33718;50.910;-1.514;2022-09-21T06:16:41;3.90;;;0.90;;
47958;SDS011;33718;50.910;-1.514;2022-09-21T06:18:44;3.58;;;1.40;;
47958;SDS011;33718;50.910;-1.514;2022-09-21T06:20:49;3.80;;;1.40;;
47958;SDS011;33718;50.910;-1.514;2022-09-21T06:23:06;2.97;;;1.08;;
47958;SDS011;33718;50.910;-1.514;2022-09-21T06:25:18;1.13;;;0.85;;
47958;SDS011;33718;50.910;-1.514;2022-09-21T06:27:30;3.85;;;1.83;;
47958;SDS011;33718;50.910;-1.514;2022-09-21T06:29:39;1.50;;;1.35;;
47958;SDS011;33718;50.910;-1.514;2022-09-21T06:31:47;1.02;;;0.93;;
47958;SDS011;33718;50.910;-1.514;2022-09-21T06:33:58;1.15;;;1.00;;
47958;SDS011;33718;50.910;-1.514;2022-09-21T06:36:15;3.15;;;1.20;;
47958;SDS011;33718;50.910;-1.514;2022-09-21T06:40:39;1.38;;;1.08;;
47958;SDS011;33718;50.910;-1.514;2022-09-21T06:42:54;1.25;;;1.13;;
47958;SDS011;33718;50.910;-1.514;2022-09-21T06:45:03;1.30;;;1.00;;
47958;SDS011;33718;50.910;-1.514;2022-09-21T06:47:16;1.15;;;1.05;;
47958;SDS011;33718;50.910;-1.514;2022-09-21T06:49:26;2.00;;;1.58;;
47958;SDS011;33718;50.910;-1.514;2022-09-21T06:51:28;1.95;;;1.40;;
47958;SDS011;33718;50.910;-1.514;2022-09-21T06:53:30;4.60;;;1.77;;
47958;SDS011;33718;50.910;-1.514;2022-09-21T06:55:33;7.13;;;1.75;;
47958;SDS011;33718;50.910;-1.514;2022-09-21T06:57:35;4.25;;;1.55;;
47958;SDS011;33718;50.910;-1.514;2022-09-21T06:59:39;2.42;;;1.70;;
47958;SDS011;33718;50.910;-1.514;2022-09-21T07:01:40;5.93;;;1.85;;
47958;SDS011;33718;50.910;-1.514;2022-09-21T07:03:42;1.48;;;1.27;;
47958;SDS011;33718;50.910;-1.514;2022-09-21T07:05:44;1.92;;;1.67;;
47958;SDS011;33718;50.910;-1.514;2022-09-21T07:07:46;2.17;;;1.70;;
47958;SDS011;33718;50.910;-1.514;2022-09-21T07:09:53;5.38;;;2.53;;
47958;SDS011;33718;50.910;-1.514;2022-09-21T07:12:14;3.13;;;1.75;;
47958;SDS011;33718;50.910;-1.514;2022-09-21T07:14:16;2.65;;;1.52;;
47958;SDS011;33718;50.910;-1.514;2022-09-21T07:16:18;6.50;;;1.50;;
47958;SDS011;33718;50.910;-1.514;2022-09-21T07:18:20;3.78;;;1.52;;
47958;SDS011;33718;50.910;-1.514;2022-09-21T07:20:21;3.67;;;1.58;;
47958;SDS011;33718;50.910;-1.514;2022-09-21T07:22:24;4.78;;;1.88;;
47958;SDS011;33718;50.910;-1.514;2022-09-21T07:24:25;6.13;;;2.28;;
47958;SDS011;33718;50.910;-1.514;2022-09-21T07:26:27;3.17;;;1.80;;
47958;SDS011;33718;50.910;-1.514;2022-09-21T07:28:29;4.18;;;2.03;;
47958;SDS011;33718;50.910;-1.514;2022-09-21T07:30:31;2.10;;;1.90;;
47958;SDS011;33718;50.910;-1.514;2022-09-21T07:32:33;4.82;;;2.08;;
47958;SDS011;33718;50.910;-1.514;2022-09-21T07:34:35;4.63;;;2.08;;
47958;SDS011;33718;50.910;-1.514;2022-09-21T07:36:37;2.58;;;2.00;;
47958;SDS011;33718;50.910;-1.514;2022-09-21T07:38:40;2.20;;;2.00;;
47958;SDS011;33718;50.910;-1.514;2022-09-21T07:40:42;2.33;;;2.13;;
47958;SDS011;33718;50.910;-1.514;2022-09-21T07:42:43;4.03;;;2.20;;
47958;SDS011;33718;50.910;-1.514;2022-09-21T07:44:45;3.85;;;2.63;;
47958;SDS011;33718;50.910;-1.514;2022-09-21T07:46:47;6.82;;;3.63;;
47958;SDS011;33718;50.910;-1.514;2022-09-21T07:48:51;3.58;;;2.40;;
47958;SDS011;33718;50.910;-1.514;2022-09-21T07:50:53;3.47;;;3.00;;
47958;SDS011;33718;50.910;-1.514;2022-09-21T07:52:55;5.47;;;3.22;;
47958;SDS011;33718;50.910;-1.514;2022-09-21T07:54:56;4.43;;;3.15;;
47958;SDS011;33718;50.910;-1.514;2022-09-21T07:56:58;7.43;;;3.15;;
47958;SDS011;33718;50.910;-1.514;2022-09-21T07:59:18;3.42;;;2.90;;
47958;SDS011;33718;50.910;-1.514;2022-09-21T08:01:21;4.30;;;3.17;;
47958;SDS011;33718;50.910;-1.514;2022-09-21T08:03:22;3.55;;;2.72;;
47958;SDS011;33718;50.910;-1.514;2022-09-21T08:05:24;6.00;;;3.63;;
47958;SDS011;33718;50.910;-1.514;2022-09-21T08:07:26;4.25;;;3.85;;
47958;SDS011;33718;50.910;-1.514;2022-09-21T08:09:28;5.78;;;3.65;;
47958;SDS011;33718;50.910;-1.514;2022-09-21T08:11:30;5.88;;;4.43;;
47958;SDS011;33718;50.910;-1.514;2022-09-21T08:13:33;3.90;;;3.55;;
47958;SDS011;33718;50.910;-1.514;2022-09-21T08:15:35;4.97;;;4.18;;
47958;SDS011;33718;50.910;-1.514;2022-09-21T08:17:54;5.85;;;3.53;;
47958;SDS011;33718;50.910;-1.514;2022-09-21T08:19:57;5.75;;;3.92;;
47958;SDS011;33718;50.910;-1.514;2022-09-21T08:21:58;5.65;;;4.00;;
47958;SDS011;33718;50.910;-1.514;2022-09-21T08:24:00;4.97;;;3.85;;
47958;SDS011;33718;50.910;-1.514;2022-09-21T08:26:02;8.40;;;4.50;;
47958;SDS011;33718;50.910;-1.514;2022-09-21T08:28:06;6.35;;;3.90;;
47958;SDS011;33718;50.910;-1.514;2022-09-21T08:30:10;7.15;;;3.85;;
47958;SDS011;33718;50.910;-1.514;2022-09-21T08:32:13;4.78;;;3.97;;
47958;SDS011;33718;50.910;-1.514;2022-09-21T08:34:35;6.15;;;4.80;;
47958;SDS011;33718;50.910;-1.514;2022-09-21T08:36:37;5.97;;;4.53;;
47958;SDS011;33718;50.910;-1.514;2022-09-21T08:38:39;6.18;;;3.97;;
47958;SDS011;33718;50.910;-1.514;2022-09-21T08:40:40;11.88;;;4.57;;
47958;SDS011;33718;50.910;-1.514;2022-09-21T08:42:49;6.88;;;4.75;;
47958;SDS011;33718;50.910;-1.514;2022-09-21T08:44:55;6.65;;;3.70;;
47958;SDS011;33718;50.910;-1.514;2022-09-21T08:47:07;4.15;;;3.70;;
47958;SDS011;33718;50.910;-1.514;2022-09-21T08:49:10;4.35;;;3.95;;
47958;SDS011;33718;50.910;-1.514;2022-09-21T08:51:14;7.20;;;4.00;;
47958;SDS011;33718;50.910;-1.514;2022-09-21T08:55:19;4.28;;;3.55;;
47958;SDS011;33718;50.910;-1.514;2022-09-21T08:57:21;4.70;;;4.22;;
47958;SDS011;33718;50.910;-1.514;2022-09-21T08:59:27;5.65;;;4.00;;
47958;SDS011;33718;50.910;-1.514;2022-09-21T09:06:19;5.55;;;4.00;;
47958;SDS011;33718;50.910;-1.514;2022-09-21T09:10:42;6.38;;;3.80;;
47958;SDS011;33718;50.910;-1.514;2022-09-21T09:13:07;4.88;;;4.38;;
47958;SDS011;33718;50.910;-1.514;2022-09-21T09:15:39;4.95;;;3.72;;
47958;SDS011;33718;50.910;-1.514;2022-09-21T09:21:49;6.25;;;3.50;;
47958;SDS011;33718;50.910;-1.514;2022-09-21T09:23:53;6.15;;;3.75;;
47958;SDS011;33718;50.910;-1.514;2022-09-21T09:26:27;7.88;;;4.07;;
47958;SDS011;33718;50.910;-1.514;2022-09-21T09:28:33;4.55;;;4.15;;
47958;SDS011;33718;50.910;-1.514;2022-09-21T09:30:36;6.38;;;4.00;;
47958;SDS011;33718;50.910;-1.514;2022-09-21T09:33:28;6.57;;;3.33;;
47958;SDS011;33718;50.910;-1.514;2022-09-21T09:35:39;5.13;;;3.20;;
47958;SDS011;33718;50.910;-1.514;2022-09-21T09:37:46;3.90;;;3.53;;
47958;SDS011;33718;50.910;-1.514;2022-09-21T09:39:53;5.25;;;3.63;;
47958;SDS011;33718;50.910;-1.514;2022-09-21T09:46:26;5.75;;;3.03;;
47958;SDS011;33718;50.910;-1.514;2022-09-21T09:48:39;3.67;;;3.35;;
47958;SDS011;33718;50.910;-1.514;2022-09-21T09:50:46;3.97;;;3.45;;
47958;SDS011;33718;50.910;-1.514;2022-09-21T09:52:50;4.13;;;3.30;;
47958;SDS011;33718;50.910;-1.514;2022-09-21T09:54:58;3.28;;;2.80;;
47958;SDS011;33718;50.910;-1.514;2022-09-21T09:57:03;4.85;;;3.30;;
47958;SDS011;33718;50.910;-1.514;2022-09-21T09:59:09;5.43;;;2.97;;
47958;SDS011;33718;50.910;-1.514;2022-09-21T10:01:34;3.08;;;2.75;;
47958;SDS011;33718;50.910;-1.514;2022-09-21T10:03:37;4.28;;;2.65;;
47958;SDS011;33718;50.910;-1.514;2022-09-21T10:05:38;3.17;;;2.78;;
47958;SDS011;33718;50.910;-1.514;2022-09-21T10:07:42;3.88;;;2.13;;
47958;SDS011;33718;50.910;-1.514;2022-09-21T10:09:46;2.38;;;2.17;;
47958;SDS011;33718;50.910;-1.514;2022-09-21T10:11:48;3.47;;;2.00;;
47958;SDS011;33718;50.910;-1.514;2022-09-21T10:13:49;2.25;;;2.05;;
47958;SDS011;33718;50.910;-1.514;2022-09-21T10:15:53;5.32;;;2.40;;
47958;SDS011;33718;50.910;-1.514;2022-09-21T10:18:57;3.20;;;2.20;;
47958;SDS011;33718;50.910;-1.514;2022-09-21T10:20:27;3.17;;;2.25;;
47958;SDS011;33718;50.910;-1.514;2022-09-21T10:22:31;2.10;;;1.90;;
47958;SDS011;33718;50.910;-1.514;2022-09-21T10:24:34;3.47;;;2.55;;
47958;SDS011;33718;50.910;-1.514;2022-09-21T10:28:53;1.90;;;1.58;;
47958;SDS011;33718;50.910;-1.514;2022-09-21T10:33:19;2.67;;;1.67;;
47958;SDS011;33718;50.910;-1.514;2022-09-21T10:35:21;2.15;;;1.70;;
47958;SDS011;33718;50.910;-1.514;2022-09-21T10:37:26;6.18;;;2.35;;
47958;SDS011;33718;50.910;-1.514;2022-09-21T10:39:29;6.13;;;2.38;;
47958;SDS011;33718;50.910;-1.514;2022-09-21T10:41:32;2.17;;;1.88;;
47958;SDS011;33718;50.910;-1.514;2022-09-21T10:43:34;3.15;;;2.25;;
47958;SDS011;33718;50.910;-1.514;2022-09-21T10:45:49;3.53;;;1.98;;
47958;SDS011;33718;50.910;-1.514;2022-09-21T10:48:26;3.47;;;2.25;;
47958;SDS011;33718;50.910;-1.514;2022-09-21T10:50:27;3.47;;;2.00;;
47958;SDS011;33718;50.910;-1.514;2022-09-21T10:52:33;5.65;;;2.00;;
47958;SDS011;33718;50.910;-1.514;2022-09-21T10:54:36;1.88;;;1.55;;
47958;SDS011;33718;50.910;-1.514;2022-09-21T10:59:08;2.92;;;1.95;;
47958;SDS011;33718;50.910;-1.514;2022-09-21T11:01:09;2.17;;;1.63;;
47958;SDS011;33718;50.910;-1.514;2022-09-21T11:03:55;2.92;;;1.55;;
47958;SDS011;33718;50.910;-1.514;2022-09-21T11:05:39;1.85;;;1.50;;
47958;SDS011;33718;50.910;-1.514;2022-09-21T11:07:47;2.33;;;1.75;;
47958;SDS011;33718;50.910;-1.514;2022-09-21T11:18:19;4.75;;;1.50;;
47958;SDS011;33718;50.910;-1.514;2022-09-21T11:44:53;2.00;;;1.43;;
47958;SDS011;33718;50.910;-1.514;2022-09-21T12:50:41;1.60;;;1.50;;
47958;SDS011;33718;50.910;-1.514;2022-09-21T13:29:50;1.13;;;1.08;;
47958;SDS011;33718;50.910;-1.514;2022-09-21T13:36:29;1.35;;;1.00;;
47958;SDS011;33718;50.910;-1.514;2022-09-21T13:40:47;1.52;;;1.02;;
47958;SDS011;33718;50.910;-1.514;2022-09-21T13:42:49;1.40;;;1.00;;
47958;SDS011;33718;50.910;-1.514;2022-09-21T13:44:51;2.10;;;1.10;;
47958;SDS011;33718;50.910;-1.514;2022-09-21T13:46:52;2.45;;;0.88;;
47958;SDS011;33718;50.910;-1.514;2022-09-21T13:48:54;2.55;;;1.27;;
47958;SDS011;33718;50.910;-1.514;2022-09-21T13:50:56;1.92;;;0.95;;
47958;SDS011;33718;50.910;-1.514;2022-09-21T13:53:00;1.50;;;1.27;;
47958;SDS011;33718;50.910;-1.514;2022-09-21T13:55:03;4.63;;;1.02;;
47958;SDS011;33718;50.910;-1.514;2022-09-21T14:01:14;2.92;;;1.17;;
47958;SDS011;33718;50.910;-1.514;2022-09-21T14:03:37;3.20;;;1.30;;
47958;SDS011;33718;50.910;-1.514;2022-09-21T14:07:42;2.88;;;1.23;;
47958;SDS011;33718;50.910;-1.514;2022-09-21T14:09:54;5.35;;;1.40;;
47958;SDS011;33718;50.910;-1.514;2022-09-21T14:12:00;3.72;;;2.08;;
47958;SDS011;33718;50.910;-1.514;2022-09-21T14:14:13;3.53;;;1.95;;
47958;SDS011;33718;50.910;-1.514;2022-09-21T14:18:36;4.00;;;1.60;;
47958;SDS011;33718;50.910;-1.514;2022-09-21T14:20:37;3.08;;;1.67;;
47958;SDS011;33718;50.910;-1.514;2022-09-21T14:22:40;2.90;;;1.65;;
47958;SDS011;33718;50.910;-1.514;2022-09-21T14:26:46;3.50;;;1.20;;
47958;SDS011;33718;50.910;-1.514;2022-09-21T14:28:50;3.22;;;1.60;;
47958;SDS011;33718;50.910;-1.514;2022-09-21T14:30:54;2.58;;;2.10;;
47958;SDS011;33718;50.910;-1.514;2022-09-21T14:35:10;5.78;;;2.33;;
47958;SDS011;33718;50.910;-1.514;2022-09-21T14:39:21;4.00;;;1.52;;
47958;SDS011;33718;50.910;-1.514;2022-09-21T14:41:24;2.10;;;1.88;;
47958;SDS011;33718;50.910;-1.514;2022-09-21T14:43:31;4.65;;;1.92;;
47958;SDS011;33718;50.910;-1.514;2022-09-21T14:47:43;2.97;;;1.77;;
47958;SDS011;33718;50.910;-1.514;2022-09-21T14:54:34;2.28;;;1.65;;
47958;SDS011;33718;50.910;-1.514;2022-09-21T14:59:01;1.80;;;1.70;;
47958;SDS011;33718;50.910;-1.514;2022-09-21T15:05:28;2.25;;;1.77;;
47958;SDS011;33718;50.910;-1.514;2022-09-21T15:07:58;4.50;;;1.83;;
47958;SDS011;33718;50.910;-1.514;2022-09-21T15:14:39;3.90;;;1.52;;
47958;SDS011;33718;50.910;-1.514;2022-09-21T15:16:44;2.17;;;1.58;;
47958;SDS011;33718;50.910;-1.514;2022-09-21T15:18:48;8.65;;;2.00;;
47958;SDS011;33718;50.910;-1.514;2022-09-21T15:20:55;1.95;;;1.67;;
47958;SDS011;33718;50.910;-1.514;2022-09-21T15:23:01;3.35;;;1.65;;
47958;SDS011;33718;50.910;-1.514;2022-09-21T15:25:10;2.53;;;1.92;;
47958;SDS011;33718;50.910;-1.514;2022-09-21T15:27:15;2.90;;;1.73;;
47958;SDS011;33718;50.910;-1.514;2022-09-21T15:29:22;2.42;;;1.48;;
47958;SDS011;33718;50.910;-1.514;2022-09-21T15:31:29;3.15;;;1.55;;
47958;SDS011;33718;50.910;-1.514;2022-09-21T15:33:38;1.88;;;1.35;;
47958;SDS011;33718;50.910;-1.514;2022-09-21T15:35:45;2.43;;;1.87;;
47958;SDS011;33718;50.910;-1.514;2022-09-21T15:37:50;7.20;;;1.80;;
47958;SDS011;33718;50.910;-1.514;2022-09-21T15:40:16;1.70;;;1.38;;
47958;SDS011;33718;50.910;-1.514;2022-09-21T15:42:25;1.92;;;1.60;;
47958;SDS011;33718;50.910;-1.514;2022-09-21T15:44:47;5.18;;;1.98;;
47958;SDS011;33718;50.910;-1.514;2022-09-21T15:46:55;4.00;;;1.60;;
47958;SDS011;33718;50.910;-1.514;2022-09-21T15:49:11;1.52;;;1.42;;
47958;SDS011;33718;50.910;-1.514;2022-09-21T15:53:48;3.65;;;1.50;;
47958;SDS011;33718;50.910;-1.514;2022-09-21T15:56:02;1.88;;;1.73;;
47958;SDS011;33718;50.910;-1.514;2022-09-21T15:58:19;2.65;;;1.67;;
47958;SDS011;33718;50.910;-1.514;2022-09-21T16:00:35;2.53;;;1.83;;
47958;SDS011;33718;50.910;-1.514;2022-09-21T16:03:00;4.28;;;1.77;;
47958;SDS011;33718;50.910;-1.514;2022-09-21T16:05:07;5.50;;;2.05;;
47958;SDS011;33718;50.910;-1.514;2022-09-21T16:11:32;5.53;;;1.50;;
47958;SDS011;33718;50.910;-1.514;2022-09-21T16:13:36;4.43;;;1.90;;
47958;SDS011;33718;50.910;-1.514;2022-09-21T16:15:59;2.97;;;1.83;;
47958;SDS011;33718;50.910;-1.514;2022-09-21T16:18:03;3.58;;;1.70;;
47958;SDS011;33718;50.910;-1.514;2022-09-21T16:22:11;1.58;;;1.48;;
47958;SDS011;33718;50.910;-1.514;2022-09-21T16:24:17;7.95;;;1.52;;
47958;SDS011;33718;50.910;-1.514;2022-09-21T16:26:20;1.77;;;1.30;;
47958;SDS011;33718;50.910;-1.514;2022-09-21T16:32:38;2.40;;;1.52;;
47958;SDS011;33718;50.910;-1.514;2022-09-21T16:34:40;4.03;;;1.70;;
47958;SDS011;33718;50.910;-1.514;2022-09-21T16:36:42;2.10;;;1.88;;
47958;SDS011;33718;50.910;-1.514;2022-09-21T16:38:44;1.98;;;1.52;;
47958;SDS011;33718;50.910;-1.514;2022-09-21T16:40:50;2.88;;;1.80;;